Flight Track Log - Related Links

Times and Time Zones

All times are in EDT time to prevent confusion due to time zone crossing. See the AAY861 flight status page for this flight to view local times or setup timezone preferences in your user account.

Time Position Orientation Groundspeed Altitude Reporting Facility
EDT Latitude Longitude Course Direction KTS MPH feet Rate Location/Type
Mon 09:07:48 AM 37.7731 -84.5873 164° South 298 343 10,400  Level FlightAware ADS-B
Mon 09:08:31 AM 37.7194 -84.5653 164° South 301 346 11,200 1,771 Climbing Indianapolis Center
Mon 09:09:33 AM 37.6228 -84.5286 163° South 354 407 13,500 2,226 Climbing Indianapolis Center
Mon 09:10:35 AM 37.5247 -84.4917 163° South 363 418 15,800 2,049 Climbing Indianapolis Center
Mon 09:11:36 AM 37.4239 -84.4536 163° South 373 429 17,700 1,707 Climbing Indianapolis Center
Mon 09:12:38 AM 37.3189 -84.4150 164° South 386 444 19,300 1,742 Climbing Indianapolis Center
Mon 09:13:40 AM 37.1933 -84.3658 163° South 400 460 21,300 1,694 Climbing Indianapolis Center
Mon 09:14:42 AM 37.0800 -84.3247 164° South 416 479 22,800 1,330 Climbing Indianapolis Center
Mon 09:20:53 AM 36.3203 -84.3002 182° South 439 505 30,900 1,206 Climbing FlightAware ADS-B (KMDQ)
Mon 09:21:55 AM 36.2022 -84.3058 182° South 445 512 31,500 726 Climbing Indianapolis Center
Mon 09:22:57 AM 36.0789 -84.3125 183° South 442 509 32,400 564 Climbing Indianapolis Center
Mon 09:28:18 AM 35.4012 -84.3473 182° South 435 501 35,100 533 Climbing FlightAware ADS-B (KDZJ)
Mon 09:28:57 AM 35.3191 -84.3514 182° South 435 501 35,600 692 Climbing FlightAware ADS-B (KDZJ)
Mon 09:29:36 AM 35.2396 -84.3554 183° South 437 503 36,000 815 Climbing FlightAware ADS-B (KDZJ)
Mon 09:30:18 AM 35.1539 -84.3598 182° South 435 501 36,700 741 Climbing FlightAware ADS-B (KDZJ)
Mon 09:30:57 AM 35.0730 -84.3638 182° South 438 504 37,000 225 Climbing FlightAware ADS-B (KDZJ)
Mon 09:31:38 AM 34.9896 -84.3679 182° South 437 503 37,000  Level FlightAware ADS-B (KDZJ)
Mon 09:32:17 AM 34.9083 -84.3720 182° South 448 516 37,000  Level FlightAware ADS-B (KDZJ)
Mon 09:32:57 AM 34.8246 -84.3761 182° South 449 517 37,000  Level FlightAware ADS-B (KDZJ)
Mon 09:33:37 AM 34.7420 -84.3801 182° South 448 516 37,000  Level FlightAware ADS-B (KDZJ)
Mon 09:34:16 AM 34.6610 -84.3842 182° South 447 514 37,000  Level FlightAware ADS-B (KDZJ)
Mon 09:34:57 AM 34.5756 -84.3883 182° South 437 503 37,000  Level FlightAware ADS-B (KDZJ)
Mon 09:35:37 AM 34.4938 -84.3924 182° South 432 497 37,000  Level FlightAware ADS-B (KDZJ)
Mon 09:36:18 AM 34.4111 -84.3965 182° South 438 504 37,000  Level FlightAware ADS-B (KDZJ)
Mon 09:36:57 AM 34.3317 -84.4005 182° South 436 502 37,000  Level FlightAware ADS-B (KDZJ)
Mon 09:37:38 AM 34.2492 -84.4046 182° South 437 503 37,000  Level FlightAware ADS-B (KDZJ)
Mon 09:38:18 AM 34.1679 -84.4087 182° South 434 499 37,000  Level FlightAware ADS-B (KDZJ)
Mon 09:38:59 AM 34.0826 -84.4127 182° South 438 504 37,000  Level FlightAware ADS-B (KDZJ)
Mon 09:39:38 AM 34.0014 -84.4166 182° South 448 516 37,000  Level FlightAware ADS-B (KDZJ)
Mon 09:40:17 AM 33.9205 -84.4206 182° South 450 518 37,000  Level FlightAware ADS-B (KDZJ)
Mon 09:41:11 AM 33.8208 -84.4264 182° South 461 531 37,000  Level Atlanta Center
Mon 09:42:11 AM 33.6956 -84.4333 183° South 461 531 37,000  Level Atlanta Center
Mon 09:43:11 AM 33.5808 -84.4353 181° South 461 531 37,000  Level Atlanta Center
Mon 09:44:11 AM 33.4533 -84.4347 180° South 461 531 37,000  Level Atlanta Center
Mon 09:45:11 AM 33.3281 -84.4317 179° South 456 525 37,000  Level Atlanta Center
Mon 09:46:11 AM 33.2008 -84.4261 178° South 456 525 37,000  Level Atlanta Center
Mon 09:47:11 AM 33.0778 -84.4281 181° South 456 525 37,000  Level Atlanta Center
Mon 09:48:11 AM 32.9503 -84.4250 179° South 456 525 37,000  Level Atlanta Center
Mon 09:49:11 AM 32.8231 -84.4219 179° South 456 525 37,000  Level Atlanta Center
Mon 09:50:11 AM 32.6894 -84.4164 178° South 451 519 37,000  Level Atlanta Center
Mon 09:51:11 AM 32.5622 -84.4183 181° South 451 519 37,000  Level Atlanta Center
Mon 09:52:11 AM 32.4369 -84.4131 178° South 456 525 37,000  Level Atlanta Center
Mon 09:54:33 AM 32.1389 -84.4014 178° South 467 537 37,000  Level Jacksonville Center
Mon 09:55:33 AM 32.0181 -84.3725 169° South 456 525 37,000  Level Jacksonville Center
Mon 09:56:33 AM 31.8950 -84.3461 170° South 450 518 37,000  Level Jacksonville Center
Mon 09:57:33 AM 31.7744 -84.3172 168° South 445 512 37,000  Level Jacksonville Center
Mon 09:58:33 AM 31.6536 -84.2936 171° South 445 512 37,000  Level Jacksonville Center
Mon 09:59:33 AM 31.5328 -84.2650 169° South 445 512 37,000  Level Jacksonville Center
Mon 10:05:03 AM 30.8780 -84.0547 164° South 439 505 37,000  Level FlightAware ADS-B (KONZ)
Mon 10:05:42 AM 30.8091 -84.0318 164° South 440 506 37,000  Level FlightAware ADS-B (KONZ)
Mon 10:06:13 AM 30.7411 -84.0092 164° South 440 506 37,000  Level FlightAware ADS-B (KONZ)
Mon 10:06:44 AM 30.6810 -83.9890 164° South 439 505 37,000  Level FlightAware ADS-B (KONZ)
Mon 10:07:15 AM 30.6206 -83.9688 164° South 438 504 37,000  Level FlightAware ADS-B (KONZ)
Mon 10:07:50 AM 30.5520 -83.9460 164° South 438 504 37,000  Level FlightAware ADS-B
Mon 10:08:23 AM 30.4863 -83.9243 164° South 437 503 37,000  Level FlightAware ADS-B (KONZ)
Mon 10:08:54 AM 30.4368 -83.9079 164° South 438 504 37,000  Level FlightAware ADS-B (KONZ)
Mon 10:09:29 AM 30.3581 -83.8818 164° South 440 506 37,000 -257 Level FlightAware ADS-B
Mon 10:10:04 AM 30.2894 -83.8589 164° South 438 504 36,700 -658 Descending FlightAware ADS-B (KONZ)
Mon 10:10:42 AM 30.2241 -83.8373 164° South 436 502 36,200 -870 Descending FlightAware ADS-B (KONZ)
Mon 10:11:13 AM 30.1558 -83.8149 164° South 440 506 35,700 -975 Descending FlightAware ADS-B (KONZ)
Mon 10:12:02 AM 30.0617 -83.7838 164° South 444 511 34,900 -987 Descending FlightAware ADS-B (KONZ)
Mon 10:12:32 AM 30.0268 -83.7724 164° South 443 510 34,400 -923 Descending FlightAware ADS-B (KONZ)
Mon 10:13:33 AM 29.8964 -83.7311 164° South 438 504 33,500 -893 Descending Jacksonville Center
Mon 10:14:33 AM 29.7756 -83.6917 164° South 438 504 32,600 -950 Descending Jacksonville Center
Mon 10:15:33 AM 29.6547 -83.6550 165° South 438 504 31,600 -1,000 Descending Jacksonville Center
Mon 10:16:33 AM 29.5275 -83.6111 163° South 454 522 30,600 -1,000 Descending Jacksonville Center
Mon 10:17:33 AM 29.4044 -83.5694 164° South 466 536 29,600 -1,200 Descending Jacksonville Center
Mon 10:18:33 AM 29.2794 -83.5306 165° South 466 536 28,200 -1,750 Descending Jacksonville Center
Mon 10:19:33 AM 29.1628 -83.4753 158° South 466 536 26,100 -2,050 Descending Jacksonville Center
Mon 10:20:33 AM 29.0547 -83.4056 151° Southeast 451 519 24,100 -1,900 Descending Jacksonville Center
Mon 10:21:33 AM 28.9464 -83.3339 150° Southeast 446 513 22,300 -1,886 Descending Jacksonville Center
Mon 10:23:28 AM 28.7333 -83.2000 151° Southeast 420 483 18,600 -1,851 Descending Tampa TRACON
Mon 10:24:28 AM 28.6500 -83.1500 152° Southeast 384 442 16,900 -1,947 Descending Tampa TRACON
Mon 10:25:22 AM 28.5667 -83.1000 152° Southeast 372 428 14,900 -1,842 Descending Tampa TRACON
Mon 10:26:22 AM 28.4667 -83.0333 150° Southeast 363 418 13,400 -1,000 Descending Tampa TRACON
Mon 10:27:22 AM 28.4000 -82.9833 147° Southeast 320 368 12,900 -600 Descending Tampa TRACON
Mon 10:27:52 AM 28.3622 -82.9786 174° South 321 369 12,500 -1,304 Descending Miami Center
Mon 10:28:54 AM 28.2792 -82.9600 169° South 309 356 10,900 -1,548 Descending Miami Center
Mon 10:29:56 AM 28.1972 -82.9400 168° South 304 350 9,300 -1,645 Descending Miami Center
Mon 10:30:58 AM 28.0989 -82.9331 176° South 299 344 7,500 -1,548 Descending Miami Center
Mon 10:32:00 AM 28.0186 -82.9267 176° South 293 337 6,100 -1,210 Descending Miami Center
Mon 10:33:02 AM 27.9453 -82.9000 162° South 284 327 5,000 -968 Descending Miami Center
Mon 10:34:04 AM 27.8781 -82.8667 156° South 277 319 4,100 -774 Descending Miami Center
Mon 10:35:06 AM 27.8386 -82.8208 134° Southeast 234 269 3,400 -1,073 Descending Miami Center
Mon 10:36:07 AM 27.8122 -82.7569 115° Southeast 227 261 1,900 -927 Descending Miami Center
Mon 10:37:09 AM 27.8297 -82.6861 74° East 208 239 1,500 -581 Descending Miami Center
Mon 10:38:11 AM 27.8703 -82.6825 North 173 199 700 -629 Descending Miami Center
Mon 10:39:13 AM 27.9036 -82.6872 353° North 157 181 200 -484 Descending Miami Center

Login

Don't have an account? Register now (free) for customized features, flight alerts, and more!